createdAt,value
2023-03-05T00:00:01.361Z,1014.08
2023-03-05T00:05:00.864Z,1014.04
2023-03-05T00:15:00.860Z,1013.98
2023-03-05T00:20:02.710Z,1013.98
2023-03-05T00:30:00.850Z,1013.89
2023-03-05T00:35:00.910Z,1013.79
2023-03-05T00:40:01.975Z,1013.79
2023-03-05T00:45:00.923Z,1013.76
2023-03-05T00:50:00.806Z,1013.76
2023-03-05T00:55:01.372Z,1013.67
2023-03-05T01:00:03.829Z,1013.67
2023-03-05T01:05:01.087Z,1013.63
2023-03-05T01:15:00.977Z,1013.47
2023-03-05T01:30:01.447Z,1013.37
2023-03-05T01:35:01.795Z,1013.34
2023-03-05T01:40:01.737Z,1013.34
2023-03-05T01:45:00.769Z,1013.25
2023-03-05T01:50:00.803Z,1013.25
2023-03-05T02:00:01.558Z,1013.17
2023-03-05T02:10:00.892Z,1013.07
2023-03-05T02:15:00.922Z,1013.11
2023-03-05T02:20:00.828Z,1013.11
2023-03-05T02:25:01.759Z,1012.96
2023-03-05T02:30:00.813Z,1012.96
2023-03-05T02:35:00.986Z,1012.88
2023-03-05T02:40:01.672Z,1012.88
2023-03-05T02:45:00.924Z,1012.74
2023-03-05T02:55:00.890Z,1012.71
2023-03-05T03:00:03.454Z,1012.71
2023-03-05T03:05:01.833Z,1012.60
2023-03-05T03:15:01.415Z,1012.45
2023-03-05T03:20:00.962Z,1012.45
2023-03-05T03:25:01.158Z,1012.40
2023-03-05T03:30:00.818Z,1012.40
2023-03-05T03:35:00.901Z,1012.34
2023-03-05T03:45:01.243Z,1012.18
2023-03-05T03:55:01.796Z,1012.06
2023-03-05T04:00:01.520Z,1012.06
2023-03-05T04:10:01.723Z,1011.89
2023-03-05T04:15:01.043Z,1011.88
2023-03-05T04:30:00.967Z,1011.88
2023-03-05T04:45:00.984Z,1011.78
2023-03-05T05:00:03.123Z,1011.65
2023-03-05T05:15:00.848Z,1011.43
2023-03-05T05:30:00.698Z,1011.49
2023-03-05T05:35:00.662Z,1011.46
2023-03-05T05:40:00.653Z,1011.46
2023-03-05T05:45:00.591Z,1011.42
2023-03-05T05:50:00.713Z,1011.42
2023-03-05T05:55:00.922Z,1011.36
2023-03-05T06:00:00.688Z,1011.36
2023-03-05T06:05:00.670Z,1011.42
2023-03-05T06:15:00.691Z,1011.40
2023-03-05T06:30:00.670Z,1011.42
2023-03-05T06:45:00.766Z,1011.48
2023-03-05T07:00:00.747Z,1011.34
2023-03-05T07:05:00.712Z,1011.25
2023-03-05T07:10:00.682Z,1011.25
2023-03-05T07:15:00.689Z,1011.15
2023-03-05T07:20:00.697Z,1011.15
2023-03-05T07:25:00.751Z,1011.14
2023-03-05T07:30:00.700Z,1011.14
2023-03-05T07:35:00.715Z,1011.17
2023-03-05T07:40:00.807Z,1011.17
2023-03-05T07:45:00.785Z,1011.06
2023-03-05T07:50:00.712Z,1011.06
2023-03-05T07:55:01.958Z,1011.06
2023-03-05T08:00:02.893Z,1011.06
2023-03-05T08:05:01.878Z,1010.96
2023-03-05T08:10:01.846Z,1010.96
2023-03-05T08:15:02.970Z,1010.94
2023-03-05T08:25:01.511Z,1010.95
2023-03-05T08:30:00.920Z,1010.95
2023-03-05T08:35:01.515Z,1010.82
2023-03-05T08:40:00.855Z,1010.82
2023-03-05T08:45:01.125Z,1010.76
2023-03-05T08:55:01.893Z,1010.58
2023-03-05T09:00:02.378Z,1010.58
2023-03-05T09:05:01.112Z,1010.47
2023-03-05T09:10:00.936Z,1010.47
2023-03-05T09:15:01.068Z,1010.44
2023-03-05T09:20:00.979Z,1010.44
2023-03-05T09:25:01.094Z,1010.30
2023-03-05T09:30:01.034Z,1010.30
2023-03-05T09:35:01.190Z,1010.23
2023-03-05T09:40:01.821Z,1010.23
2023-03-05T09:45:01.111Z,1010.22
2023-03-05T09:50:00.951Z,1010.22
2023-03-05T10:00:03.390Z,1010.25
2023-03-05T10:05:01.020Z,1010.13
2023-03-05T10:15:01.032Z,1010.03
2023-03-05T10:20:01.013Z,1010.03
2023-03-05T10:25:01.413Z,1009.93
2023-03-05T10:30:01.633Z,1009.93
2023-03-05T10:45:01.123Z,1009.76
2023-03-05T11:00:04.926Z,1009.59
2023-03-05T11:05:01.260Z,1009.61
2023-03-05T11:10:00.979Z,1009.61
2023-03-05T11:15:01.298Z,1009.51
2023-03-05T11:30:01.106Z,1009.38
2023-03-05T11:35:00.975Z,1009.43
2023-03-05T11:45:00.983Z,1009.49
2023-03-05T11:50:01.033Z,1009.49
2023-03-05T11:55:02.201Z,1009.46
2023-03-05T12:00:02.968Z,1009.46
2023-03-05T12:05:01.017Z,1009.36
2023-03-05T12:15:01.032Z,1009.14
2023-03-05T12:20:01.854Z,1009.14
2023-03-05T12:25:11.170Z,1008.98
2023-03-05T12:30:01.062Z,1008.98
2023-03-05T12:35:01.091Z,1008.86
2023-03-05T12:40:01.195Z,1008.86
2023-03-05T12:45:01.000Z,1008.89
2023-03-05T12:55:02.008Z,1008.57
2023-03-05T13:00:04.628Z,1008.57
2023-03-05T13:05:01.079Z,1008.41
2023-03-05T13:10:02.074Z,1008.41
2023-03-05T13:15:01.105Z,1008.25
2023-03-05T13:20:03.115Z,1008.25
2023-03-05T13:25:02.159Z,1008.20
2023-03-05T13:30:01.272Z,1008.20
2023-03-05T13:45:01.401Z,1007.98
2023-03-05T13:55:02.130Z,1007.81
2023-03-05T14:00:01.297Z,1007.81
2023-03-05T14:05:01.355Z,1007.74
2023-03-05T14:15:01.136Z,1007.60
2023-03-05T14:30:01.236Z,1007.51
2023-03-05T14:45:02.020Z,1007.31
2023-03-05T14:50:01.045Z,1007.31
2023-03-05T14:55:02.023Z,1007.20
2023-03-05T15:00:04.862Z,1007.20
2023-03-05T15:05:01.313Z,1007.15
2023-03-05T15:10:01.852Z,1007.15
2023-03-05T15:15:01.054Z,1007.00
2023-03-05T15:20:01.098Z,1007.00
2023-03-05T15:25:01.138Z,1006.99
2023-03-05T15:30:01.126Z,1006.99
2023-03-05T15:35:01.104Z,1006.86
2023-03-05T15:40:01.410Z,1006.86
2023-03-05T15:45:06.989Z,1006.75
2023-03-05T15:50:01.088Z,1006.75
2023-03-05T15:55:02.045Z,1006.68
2023-03-05T16:00:04.816Z,1006.68
2023-03-05T16:05:01.457Z,1006.56
2023-03-05T16:10:01.681Z,1006.56
2023-03-05T16:15:01.044Z,1006.50
2023-03-05T16:20:01.076Z,1006.50
2023-03-05T16:30:01.241Z,1006.41
2023-03-05T16:45:01.086Z,1006.25
2023-03-05T17:00:03.127Z,1006.16
2023-03-05T17:10:01.138Z,1006.15
2023-03-05T17:15:06.816Z,1006.12
2023-03-05T17:20:01.092Z,1006.12
2023-03-05T17:30:01.351Z,1006.12
2023-03-05T17:35:03.206Z,1006.11
2023-03-05T17:45:02.074Z,1006.05
2023-03-05T18:00:03.530Z,1006.07
2023-03-05T18:15:01.177Z,1006.07
2023-03-05T18:25:01.483Z,1005.91
2023-03-05T18:30:02.456Z,1005.91
2023-03-05T18:40:02.092Z,1005.89
2023-03-05T18:45:01.229Z,1005.77
2023-03-05T18:55:01.258Z,1005.80
2023-03-05T19:00:04.930Z,1005.80
2023-03-05T19:15:01.360Z,1005.66
2023-03-05T19:30:01.401Z,1005.45
2023-03-05T19:35:01.265Z,1005.49
2023-03-05T19:45:02.173Z,1005.38
2023-03-05T19:50:01.948Z,1005.38
2023-03-05T20:00:04.702Z,1005.28
2023-03-05T20:05:02.146Z,1005.18
2023-03-05T20:15:01.238Z,1005.10
2023-03-05T20:20:01.168Z,1005.10
2023-03-05T20:30:01.776Z,1005.00
2023-03-05T20:35:01.375Z,1004.98
2023-03-05T20:45:00.954Z,1005.03
2023-03-05T20:55:00.985Z,1004.99
2023-03-05T21:00:02.970Z,1004.99
2023-03-05T21:05:01.321Z,1004.93
2023-03-05T21:15:01.114Z,1004.89
2023-03-05T21:30:01.248Z,1004.71
2023-03-05T21:35:01.606Z,1004.62
2023-03-05T21:45:01.027Z,1004.57
2023-03-05T21:50:01.182Z,1004.57
2023-03-05T21:55:01.911Z,1004.51
2023-03-05T22:00:03.042Z,1004.51
2023-03-05T22:05:01.324Z,1004.34
2023-03-05T22:10:06.352Z,1004.34
2023-03-05T22:15:02.208Z,1004.28
2023-03-05T22:20:01.885Z,1004.28
2023-03-05T22:25:01.243Z,1004.21
2023-03-05T22:30:01.233Z,1004.21
2023-03-05T22:35:01.840Z,1004.01
2023-03-05T22:40:07.829Z,1004.01
2023-03-05T22:45:02.206Z,1003.97
2023-03-05T22:50:02.042Z,1003.97
2023-03-05T23:00:03.591Z,1003.94
2023-03-05T23:05:02.259Z,1003.87
2023-03-05T23:15:01.369Z,1003.93
2023-03-05T23:20:01.290Z,1003.93
2023-03-05T23:30:01.338Z,1003.90
2023-03-05T23:35:01.560Z,1003.91
2023-03-05T23:45:02.167Z,1003.88
